createdAt,value
2022-09-17T00:00:26.000Z,11.80
2022-09-17T00:02:52.580Z,10.33
2022-09-17T00:05:19.494Z,10.43
2022-09-17T00:07:46.042Z,11.23
2022-09-17T00:10:12.553Z,11.63
2022-09-17T00:12:39.092Z,13.07
2022-09-17T00:15:05.654Z,12.40
2022-09-17T00:17:32.129Z,10.50
2022-09-17T00:19:58.655Z,12.07
2022-09-17T00:22:25.136Z,13.67
2022-09-17T00:24:51.641Z,12.47
2022-09-17T00:27:18.165Z,12.67
2022-09-17T00:29:44.737Z,13.47
2022-09-17T00:32:11.265Z,12.10
2022-09-17T00:34:37.772Z,12.67
2022-09-17T00:37:04.257Z,13.67
2022-09-17T00:39:30.769Z,12.27
2022-09-17T00:41:57.328Z,13.83
2022-09-17T00:44:23.875Z,12.27
2022-09-17T00:46:50.545Z,14.13
2022-09-17T00:49:17.084Z,13.07
2022-09-17T00:51:43.605Z,13.37
2022-09-17T00:54:10.149Z,13.57
2022-09-17T00:56:36.656Z,14.87
2022-09-17T00:59:03.218Z,12.87
2022-09-17T01:01:29.716Z,13.10
2022-09-17T01:03:56.226Z,13.47
2022-09-17T01:06:22.740Z,12.77
2022-09-17T01:08:49.288Z,14.20
2022-09-17T01:11:15.891Z,12.60
2022-09-17T01:13:42.390Z,12.23
2022-09-17T01:16:11.933Z,11.90
2022-09-17T01:18:38.502Z,11.27
2022-09-17T01:21:05.069Z,10.83
2022-09-17T01:23:31.592Z,12.13
2022-09-17T01:25:58.082Z,10.10
2022-09-17T01:28:24.625Z,10.07
2022-09-17T01:30:51.172Z,10.13
2022-09-17T01:33:17.657Z,12.63
2022-09-17T01:35:44.168Z,9.87
2022-09-17T01:38:10.645Z,10.43
2022-09-17T01:40:37.264Z,10.80
2022-09-17T01:43:03.754Z,11.13
2022-09-17T01:45:30.345Z,11.60
2022-09-17T01:47:56.825Z,9.17
2022-09-17T01:50:23.371Z,9.30
2022-09-17T01:52:49.897Z,10.10
2022-09-17T01:55:16.419Z,9.93
2022-09-17T01:57:42.938Z,10.87
2022-09-17T02:00:09.435Z,10.03
2022-09-17T02:02:35.960Z,11.30
2022-09-17T02:05:02.489Z,14.37
2022-09-17T02:07:28.992Z,9.77
2022-09-17T02:09:55.555Z,11.67
2022-09-17T02:12:22.082Z,12.40
2022-09-17T02:14:48.584Z,10.50
2022-09-17T02:17:15.149Z,10.17
2022-09-17T02:19:41.664Z,11.07
2022-09-17T02:22:08.198Z,10.87
2022-09-17T02:24:34.756Z,11.07
2022-09-17T02:27:01.232Z,11.10
2022-09-17T02:29:27.748Z,10.73
2022-09-17T02:31:54.308Z,12.37
2022-09-17T02:34:20.839Z,12.50
2022-09-17T02:36:47.371Z,12.80
2022-09-17T02:39:13.940Z,11.47
2022-09-17T02:41:40.428Z,12.33
2022-09-17T02:44:06.986Z,13.17
2022-09-17T02:46:33.553Z,12.07
2022-09-17T02:49:00.090Z,12.30
2022-09-17T02:51:26.657Z,14.37
2022-09-17T02:53:53.179Z,11.30
2022-09-17T02:56:19.672Z,12.17
2022-09-17T02:58:46.255Z,10.60
2022-09-17T03:01:12.803Z,9.30
2022-09-17T03:03:39.378Z,9.73
2022-09-17T03:06:05.988Z,9.07
2022-09-17T03:08:32.509Z,8.90
2022-09-17T03:10:59.018Z,11.13
2022-09-17T03:13:25.553Z,8.17
2022-09-17T03:15:52.124Z,8.93
2022-09-17T03:18:18.871Z,7.10
2022-09-17T03:20:45.369Z,6.93
2022-09-17T03:23:11.889Z,7.50
2022-09-17T03:25:38.568Z,6.60
2022-09-17T03:28:05.099Z,7.63
2022-09-17T03:30:31.855Z,7.13
2022-09-17T03:32:58.386Z,7.07
2022-09-17T03:35:24.920Z,6.33
2022-09-17T03:37:51.422Z,6.70
2022-09-17T03:40:17.982Z,6.80
2022-09-17T03:42:44.594Z,7.37
2022-09-17T03:45:11.105Z,5.97
2022-09-17T03:47:37.616Z,6.60
2022-09-17T03:50:04.176Z,6.10
2022-09-17T03:52:30.698Z,5.57
2022-09-17T03:54:57.263Z,6.07
2022-09-17T03:57:23.775Z,7.67
2022-09-17T03:59:50.285Z,5.00
2022-09-17T04:02:17.059Z,3.43
2022-09-17T04:04:43.666Z,4.27
2022-09-17T04:07:10.195Z,3.50
2022-09-17T04:09:36.697Z,5.00
2022-09-17T04:12:03.227Z,4.33
2022-09-17T04:14:29.878Z,5.83
2022-09-17T04:16:56.519Z,4.70
2022-09-17T04:19:23.036Z,3.50
2022-09-17T04:21:50.919Z,4.30
2022-09-17T04:24:17.410Z,3.40
2022-09-17T04:26:43.961Z,4.43
2022-09-17T04:29:10.524Z,3.97
2022-09-17T04:31:37.061Z,5.90
2022-09-17T04:34:03.594Z,3.97
2022-09-17T04:36:30.133Z,3.13
2022-09-17T04:38:56.628Z,3.00
2022-09-17T04:41:23.162Z,5.73
2022-09-17T04:43:49.746Z,3.00
2022-09-17T04:46:16.364Z,3.33
2022-09-17T04:48:42.918Z,3.30
2022-09-17T04:51:09.438Z,2.77
2022-09-17T04:53:35.924Z,4.43
2022-09-17T04:56:02.498Z,3.97
2022-09-17T04:58:29.018Z,3.67
2022-09-17T05:00:55.584Z,4.07
2022-09-17T05:03:22.310Z,4.33
2022-09-17T05:05:48.821Z,3.80
2022-09-17T05:08:15.341Z,3.93
2022-09-17T05:10:42.225Z,3.40
2022-09-17T05:13:08.745Z,3.60
2022-09-17T05:15:35.340Z,4.10
2022-09-17T05:18:01.905Z,6.90
2022-09-17T05:20:28.469Z,3.10
2022-09-17T05:22:54.959Z,5.33
2022-09-17T05:25:21.507Z,3.93
2022-09-17T05:27:48.109Z,3.60
2022-09-17T05:30:14.731Z,4.30
2022-09-17T05:32:41.274Z,5.37
2022-09-17T05:35:07.846Z,4.83
2022-09-17T05:37:34.328Z,5.23
2022-09-17T05:40:01.010Z,7.93
2022-09-17T05:42:27.667Z,7.30
2022-09-17T05:44:54.273Z,8.60
2022-09-17T05:47:21.043Z,9.30
2022-09-17T05:49:47.574Z,6.20
2022-09-17T05:52:14.444Z,6.20
2022-09-17T05:54:40.971Z,4.87
2022-09-17T05:57:07.505Z,8.03
2022-09-17T05:59:34.034Z,7.37
2022-09-17T06:02:00.614Z,4.07
2022-09-17T06:04:30.511Z,4.43
2022-09-17T06:06:59.280Z,3.93
2022-09-17T06:09:27.963Z,4.20
2022-09-17T06:11:54.518Z,7.93
2022-09-17T06:14:21.125Z,4.97
2022-09-17T06:16:47.921Z,6.87
2022-09-17T06:19:14.457Z,4.53
2022-09-17T06:21:40.974Z,5.17
2022-09-17T06:24:07.594Z,4.20
2022-09-17T06:26:34.183Z,5.20
2022-09-17T06:29:00.825Z,4.20
2022-09-17T06:31:27.444Z,6.20
2022-09-17T06:33:54.296Z,5.53
2022-09-17T06:36:20.830Z,3.43
2022-09-17T06:38:47.391Z,4.23
2022-09-17T06:41:13.945Z,5.17
2022-09-17T06:43:40.454Z,5.47
2022-09-17T06:46:06.966Z,6.87
2022-09-17T06:48:33.512Z,7.23
2022-09-17T06:51:00.093Z,4.93
2022-09-17T06:53:26.607Z,6.53
2022-09-17T06:55:53.150Z,21.50
2022-09-17T06:58:19.717Z,6.97
2022-09-17T07:00:46.251Z,9.97
2022-09-17T07:03:12.810Z,5.03
2022-09-17T07:05:39.351Z,5.47
2022-09-17T07:08:05.880Z,6.33
2022-09-17T07:10:32.415Z,6.53
2022-09-17T07:12:58.957Z,4.63
2022-09-17T07:15:25.474Z,4.77
2022-09-17T07:17:52.067Z,6.13
2022-09-17T07:20:18.602Z,5.23
2022-09-17T07:22:45.143Z,6.07
2022-09-17T07:25:11.682Z,3.80
2022-09-17T07:27:38.230Z,4.87
2022-09-17T07:30:04.749Z,7.33
2022-09-17T07:32:31.304Z,4.77
2022-09-17T07:34:57.864Z,5.90
2022-09-17T07:37:24.450Z,5.33
2022-09-17T07:39:50.945Z,4.77
2022-09-17T07:42:17.550Z,4.37
2022-09-17T07:44:44.108Z,3.87
2022-09-17T07:47:10.609Z,2.97
2022-09-17T07:49:37.215Z,2.80
2022-09-17T07:52:03.729Z,6.43
2022-09-17T07:54:30.343Z,5.73
2022-09-17T07:56:56.990Z,5.80
2022-09-17T07:59:23.506Z,4.03
2022-09-17T08:01:50.129Z,5.47
2022-09-17T08:04:16.792Z,3.20
2022-09-17T08:06:43.274Z,5.13
2022-09-17T08:09:09.858Z,4.33
2022-09-17T08:11:55.967Z,4.63
2022-09-17T08:14:25.770Z,4.83
2022-09-17T08:16:55.170Z,5.23
2022-09-17T08:19:21.730Z,4.33
2022-09-17T08:21:48.350Z,3.23
2022-09-17T08:24:14.893Z,3.83
2022-09-17T08:26:41.460Z,2.50
2022-09-17T08:29:07.995Z,5.97
2022-09-17T08:31:34.597Z,5.37
2022-09-17T08:34:01.250Z,5.97
2022-09-17T08:36:27.809Z,8.20
2022-09-17T08:38:54.329Z,5.63
2022-09-17T08:41:21.040Z,5.30
2022-09-17T08:43:47.735Z,4.20
2022-09-17T08:46:14.380Z,5.27
2022-09-17T08:48:41.019Z,5.57
2022-09-17T08:51:08.594Z,3.47
2022-09-17T08:53:35.189Z,4.53
2022-09-17T08:56:01.755Z,4.30
2022-09-17T08:58:28.233Z,6.10
2022-09-17T09:00:54.772Z,5.77
2022-09-17T09:03:21.287Z,5.10
2022-09-17T09:05:47.842Z,5.23
2022-09-17T09:08:14.390Z,5.37
2022-09-17T09:10:40.970Z,6.70
2022-09-17T09:13:07.486Z,5.87
2022-09-17T09:15:33.954Z,6.07
2022-09-17T09:18:00.442Z,2.87
2022-09-17T09:20:26.923Z,4.57
2022-09-17T09:22:53.627Z,3.00
2022-09-17T09:25:20.113Z,3.40
2022-09-17T09:27:46.628Z,5.13
2022-09-17T09:30:13.221Z,5.23
2022-09-17T09:32:39.745Z,7.43
2022-09-17T09:35:06.310Z,4.10
2022-09-17T09:37:32.900Z,5.10
2022-09-17T09:39:59.427Z,3.00
2022-09-17T09:42:26.018Z,3.93
2022-09-17T09:44:52.578Z,3.43
2022-09-17T09:47:19.146Z,3.73
2022-09-17T09:49:45.752Z,5.60
2022-09-17T09:52:12.273Z,4.90
2022-09-17T09:54:38.933Z,4.47
2022-09-17T09:57:05.450Z,3.47
2022-09-17T09:59:31.960Z,4.60
2022-09-17T10:01:58.547Z,3.73
2022-09-17T10:04:25.193Z,4.13
2022-09-17T10:06:51.870Z,3.83
2022-09-17T10:09:18.414Z,3.67
2022-09-17T10:11:44.934Z,2.43
2022-09-17T10:14:11.456Z,3.47
2022-09-17T10:16:37.984Z,3.37
2022-09-17T10:19:04.562Z,4.57
2022-09-17T10:21:31.099Z,2.37
2022-09-17T10:23:57.616Z,2.60
2022-09-17T10:26:24.396Z,3.00
2022-09-17T10:28:50.901Z,3.13
2022-09-17T10:31:17.480Z,4.83
2022-09-17T10:33:44.029Z,3.40
2022-09-17T10:36:10.581Z,3.30
2022-09-17T10:38:37.130Z,4.07
2022-09-17T10:41:03.715Z,3.63
2022-09-17T10:43:30.256Z,5.67
2022-09-17T10:45:56.861Z,6.47
2022-09-17T10:48:23.350Z,3.40
2022-09-17T10:50:49.898Z,3.47
2022-09-17T10:53:16.364Z,2.90
2022-09-17T10:55:42.864Z,3.03
2022-09-17T10:58:09.382Z,3.77
2022-09-17T11:00:35.945Z,2.87
2022-09-17T11:03:02.494Z,4.57
2022-09-17T11:05:29.092Z,4.23
2022-09-17T11:07:56.893Z,4.57
2022-09-17T11:10:28.477Z,4.53
2022-09-17T11:12:55.009Z,3.10
2022-09-17T11:15:21.553Z,6.57
2022-09-17T11:17:48.126Z,2.97
2022-09-17T11:20:14.622Z,16.57
2022-09-17T11:22:41.109Z,9.67
2022-09-17T11:25:07.688Z,24.60
2022-09-17T11:27:34.158Z,16.97
2022-09-17T11:30:00.702Z,3.93
2022-09-17T11:32:27.256Z,2.27
2022-09-17T11:34:53.800Z,1.63
2022-09-17T11:37:20.333Z,2.03
2022-09-17T11:39:46.893Z,3.00
2022-09-17T11:42:13.406Z,2.60
2022-09-17T11:44:39.927Z,3.13
2022-09-17T11:47:06.471Z,3.30
2022-09-17T11:49:33.016Z,3.83
2022-09-17T11:51:59.582Z,1.67
2022-09-17T11:54:26.128Z,1.23
2022-09-17T11:56:52.649Z,2.13
2022-09-17T11:59:19.444Z,3.10
2022-09-17T12:01:46.322Z,1.80
2022-09-17T12:04:13.184Z,3.10
2022-09-17T12:06:40.009Z,2.37
2022-09-17T12:09:06.593Z,22.67
2022-09-17T12:11:33.433Z,3.50
2022-09-17T12:14:00.004Z,2.20
2022-09-17T12:16:26.892Z,1.90
2022-09-17T12:18:53.448Z,1.73
2022-09-17T12:21:20.140Z,0.60
2022-09-17T12:23:46.716Z,0.83
2022-09-17T12:26:13.284Z,7.50
2022-09-17T12:28:39.799Z,1.67
2022-09-17T12:31:06.324Z,1.50
2022-09-17T12:33:32.881Z,2.53
2022-09-17T12:36:04.444Z,0.73
2022-09-17T12:38:31.969Z,0.90
2022-09-17T12:40:58.483Z,0.80
2022-09-17T12:43:24.959Z,0.40
2022-09-17T12:45:51.570Z,1.73
2022-09-17T12:48:18.146Z,1.10
2022-09-17T12:50:44.689Z,0.60
2022-09-17T12:53:11.269Z,0.80
2022-09-17T12:55:37.761Z,1.77
2022-09-17T12:58:04.380Z,0.53
2022-09-17T13:00:30.991Z,0.50
2022-09-17T13:02:57.618Z,1.43
2022-09-17T13:05:24.161Z,0.90
2022-09-17T13:07:50.681Z,0.77
2022-09-17T13:10:17.284Z,0.53
2022-09-17T13:12:43.824Z,0.37
2022-09-17T13:15:10.357Z,1.07
2022-09-17T13:17:36.971Z,1.50
2022-09-17T13:20:03.549Z,0.60
2022-09-17T13:22:30.118Z,0.77
2022-09-17T13:24:56.649Z,0.60
2022-09-17T13:27:23.199Z,0.43
2022-09-17T13:29:49.754Z,1.37
2022-09-17T13:32:16.364Z,0.80
2022-09-17T13:34:42.892Z,1.00
2022-09-17T13:37:09.425Z,0.40
2022-09-17T13:39:36.137Z,0.67
2022-09-17T13:42:02.629Z,0.70
2022-09-17T13:44:29.132Z,0.60
2022-09-17T13:46:55.715Z,1.60
2022-09-17T13:49:22.233Z,0.87
2022-09-17T13:51:48.750Z,0.93
2022-09-17T13:54:15.334Z,1.57
2022-09-17T13:56:41.881Z,0.77
2022-09-17T13:59:08.410Z,1.70
2022-09-17T14:01:35.007Z,1.10
2022-09-17T14:04:01.687Z,1.00
2022-09-17T14:06:28.327Z,0.70
2022-09-17T14:08:54.805Z,0.53
2022-09-17T14:11:21.321Z,0.43
2022-09-17T14:13:47.999Z,0.70
2022-09-17T14:16:14.649Z,0.50
2022-09-17T14:18:41.150Z,1.37
2022-09-17T14:21:07.792Z,0.87
2022-09-17T14:23:34.273Z,2.20
2022-09-17T14:26:00.740Z,0.50
2022-09-17T14:28:27.227Z,0.60
2022-09-17T14:30:53.808Z,1.47
2022-09-17T14:33:20.361Z,0.50
2022-09-17T14:35:46.866Z,0.60
2022-09-17T14:38:13.417Z,1.20
2022-09-17T14:40:40.097Z,1.23
2022-09-17T14:43:06.657Z,3.00
2022-09-17T14:45:33.186Z,0.70
2022-09-17T14:47:59.677Z,0.90
2022-09-17T14:50:26.229Z,1.63
2022-09-17T14:52:52.739Z,0.90
2022-09-17T14:55:19.272Z,1.37
2022-09-17T14:57:45.740Z,3.07
2022-09-17T15:00:12.328Z,4.17
2022-09-17T15:02:38.910Z,1.27
2022-09-17T15:05:05.491Z,2.03
2022-09-17T15:07:32.026Z,1.73
2022-09-17T15:09:58.518Z,1.10
2022-09-17T15:12:25.069Z,1.97
2022-09-17T15:14:51.593Z,2.23
2022-09-17T15:17:18.105Z,3.67
2022-09-17T15:19:44.628Z,4.60
2022-09-17T15:22:11.136Z,3.00
2022-09-17T15:24:37.644Z,1.90
2022-09-17T15:27:04.182Z,4.13
2022-09-17T15:29:30.758Z,6.13
2022-09-17T15:31:57.267Z,5.43
2022-09-17T15:34:23.791Z,3.20
2022-09-17T15:36:50.474Z,5.70
2022-09-17T15:39:16.972Z,3.10
2022-09-17T15:41:43.499Z,5.60
2022-09-17T15:46:56.535Z,2.93
2022-09-17T15:49:23.150Z,2.97
2022-09-17T15:51:49.708Z,4.63
2022-09-17T15:54:16.226Z,5.03
2022-09-17T15:56:42.771Z,4.00
2022-09-17T15:59:09.317Z,7.17
2022-09-17T16:01:35.956Z,5.83
2022-09-17T16:04:02.551Z,7.83
2022-09-17T16:06:29.099Z,3.63
2022-09-17T16:08:55.630Z,4.67
2022-09-17T16:11:22.149Z,7.73
2022-09-17T16:13:48.765Z,5.97
2022-09-17T16:16:15.406Z,4.20
2022-09-17T16:18:41.936Z,6.73
2022-09-17T16:21:08.545Z,6.67
2022-09-17T16:23:35.082Z,7.83
2022-09-17T16:26:01.594Z,4.27
2022-09-17T16:28:28.146Z,5.97
2022-09-17T16:30:54.663Z,4.13
2022-09-17T16:33:21.136Z,4.93
2022-09-17T16:35:47.705Z,6.17
2022-09-17T16:38:14.244Z,5.10
2022-09-17T16:40:40.844Z,3.23
2022-09-17T16:43:07.449Z,5.27
2022-09-17T16:45:34.008Z,5.23
2022-09-17T16:48:00.568Z,4.40
2022-09-17T16:50:27.139Z,5.47
2022-09-17T16:52:53.729Z,4.90
2022-09-17T16:55:20.234Z,2.97
2022-09-17T16:57:46.757Z,4.77
2022-09-17T17:00:13.236Z,6.87
2022-09-17T17:02:39.889Z,5.77
2022-09-17T17:05:06.464Z,5.87
2022-09-17T17:07:32.998Z,4.40
2022-09-17T17:09:59.557Z,3.30
2022-09-17T17:12:26.133Z,4.00
2022-09-17T17:14:52.662Z,5.30
2022-09-17T17:17:19.165Z,4.57
2022-09-17T17:19:45.675Z,8.70
2022-09-17T17:22:12.224Z,8.90
2022-09-17T17:24:38.723Z,6.93
2022-09-17T17:27:05.279Z,4.73
2022-09-17T17:29:31.888Z,4.73
2022-09-17T17:31:58.420Z,4.37
2022-09-17T17:34:24.970Z,4.73
2022-09-17T17:36:51.503Z,6.43
2022-09-17T17:39:18.006Z,3.10
2022-09-17T17:41:48.455Z,3.93
2022-09-17T17:44:17.573Z,4.70
2022-09-17T17:46:44.171Z,2.57
2022-09-17T17:49:10.711Z,1.93
2022-09-17T17:51:37.224Z,2.50
2022-09-17T17:54:03.759Z,2.50
2022-09-17T17:56:30.276Z,4.67
2022-09-17T17:58:56.878Z,2.47
2022-09-17T18:01:23.461Z,2.37
2022-09-17T18:03:50.036Z,4.17
2022-09-17T18:06:16.621Z,3.57
2022-09-17T18:08:43.134Z,3.73
2022-09-17T18:11:09.606Z,3.33
2022-09-17T18:13:36.241Z,3.73
2022-09-17T18:16:02.767Z,3.23
2022-09-17T18:18:29.339Z,2.80
2022-09-17T18:20:55.862Z,4.03
2022-09-17T18:23:22.451Z,2.60
2022-09-17T18:25:48.984Z,2.63
2022-09-17T18:28:15.553Z,2.93
2022-09-17T18:30:42.077Z,2.47
2022-09-17T18:33:08.591Z,2.43
2022-09-17T18:35:35.135Z,2.50
2022-09-17T18:38:01.644Z,2.57
2022-09-17T18:40:28.202Z,4.70
2022-09-17T18:42:54.766Z,3.27
2022-09-17T18:45:21.285Z,4.83
2022-09-17T18:47:47.826Z,4.27
2022-09-17T18:50:14.505Z,3.50
2022-09-17T18:52:41.028Z,3.10
2022-09-17T18:55:07.551Z,2.50
2022-09-17T18:57:34.236Z,2.87
2022-09-17T19:00:00.916Z,2.47
2022-09-17T19:02:27.428Z,1.70
2022-09-17T19:04:53.979Z,1.53
2022-09-17T19:07:20.488Z,1.67
2022-09-17T19:09:47.037Z,1.90
2022-09-17T19:12:13.533Z,2.97
2022-09-17T19:14:40.113Z,2.67
2022-09-17T19:17:06.641Z,1.93
2022-09-17T19:19:33.165Z,1.93
2022-09-17T19:21:59.935Z,1.77
2022-09-17T19:24:26.441Z,2.93
2022-09-17T19:26:52.997Z,4.27
2022-09-17T19:29:19.527Z,2.73
2022-09-17T19:31:46.073Z,2.10
2022-09-17T19:34:12.683Z,3.50
2022-09-17T19:36:39.208Z,3.63
2022-09-17T19:39:05.768Z,4.40
2022-09-17T19:41:35.314Z,2.50
2022-09-17T19:44:01.873Z,4.17
2022-09-17T19:46:28.430Z,3.53
2022-09-17T19:48:54.983Z,2.67
2022-09-17T19:51:21.540Z,1.90
2022-09-17T19:53:48.072Z,1.67
2022-09-17T19:56:14.622Z,2.67
2022-09-17T19:58:41.198Z,3.20
2022-09-17T20:01:07.776Z,2.70
2022-09-17T20:03:34.295Z,2.30
2022-09-17T20:06:00.829Z,4.43
2022-09-17T20:08:27.390Z,3.47
2022-09-17T20:10:53.925Z,1.93
2022-09-17T20:13:20.420Z,2.20
2022-09-17T20:15:47.020Z,2.87
2022-09-17T20:18:13.649Z,4.23
2022-09-17T20:20:40.178Z,2.73
2022-09-17T20:23:06.648Z,2.67
2022-09-17T20:25:33.204Z,3.10
2022-09-17T20:27:59.718Z,1.70
2022-09-17T20:30:26.363Z,1.97
2022-09-17T20:32:52.987Z,2.40
2022-09-17T20:35:19.498Z,1.67
2022-09-17T20:38:44.465Z,1.90
2022-09-17T20:40:32.582Z,1.30
2022-09-17T20:42:59.119Z,1.40
2022-09-17T20:45:25.677Z,0.80
2022-09-17T20:47:52.210Z,1.17
2022-09-17T20:50:18.713Z,0.80
2022-09-17T20:52:45.220Z,1.20
2022-09-17T20:55:12.321Z,1.40
2022-09-17T20:57:38.850Z,2.10
2022-09-17T21:00:05.337Z,1.43
2022-09-17T21:02:31.882Z,2.60
2022-09-17T21:04:58.429Z,3.43
2022-09-17T21:07:24.962Z,0.70
2022-09-17T21:09:51.510Z,1.67
2022-09-17T21:12:18.028Z,0.90
2022-09-17T21:14:47.312Z,0.93
2022-09-17T21:17:13.916Z,1.80
2022-09-17T21:19:40.450Z,0.63
2022-09-17T21:22:07.015Z,1.67
2022-09-17T21:24:35.845Z,1.27
2022-09-17T21:27:02.456Z,1.03
2022-09-17T21:29:28.943Z,1.07
2022-09-17T21:31:55.532Z,0.53
2022-09-17T21:34:22.092Z,0.60
2022-09-17T21:36:48.613Z,1.20
2022-09-17T21:39:15.158Z,1.50
2022-09-17T21:41:42.993Z,1.03
2022-09-17T21:44:09.698Z,1.47
2022-09-17T21:46:36.491Z,1.10
2022-09-17T21:49:03.097Z,0.97
2022-09-17T21:51:29.681Z,1.10
2022-09-17T21:53:56.168Z,0.50
2022-09-17T21:56:22.808Z,0.70
2022-09-17T21:58:49.315Z,1.27
2022-09-17T22:01:15.856Z,1.53
2022-09-17T22:03:42.438Z,1.77
2022-09-17T22:06:08.990Z,1.00
2022-09-17T22:08:35.618Z,2.40
2022-09-17T22:11:02.132Z,1.27
2022-09-17T22:13:28.671Z,2.17
2022-09-17T22:15:55.273Z,1.13
2022-09-17T22:18:21.859Z,1.37
2022-09-17T22:20:48.410Z,1.30
2022-09-17T22:23:14.935Z,1.33
2022-09-17T22:25:41.469Z,2.23
2022-09-17T22:28:20.420Z,2.37
2022-09-17T22:30:48.153Z,1.37
2022-09-17T22:33:14.677Z,2.30
2022-09-17T22:35:41.228Z,2.60
2022-09-17T22:38:07.733Z,1.73
2022-09-17T22:40:34.310Z,1.60
2022-09-17T22:43:00.857Z,1.10
2022-09-17T22:45:27.388Z,1.40
2022-09-17T22:47:53.925Z,2.47
2022-09-17T22:50:20.412Z,2.07
2022-09-17T22:52:46.937Z,2.73
2022-09-17T22:55:13.501Z,1.00
2022-09-17T22:57:39.981Z,1.90
2022-09-17T23:00:06.535Z,0.90
2022-09-17T23:02:33.130Z,1.47
2022-09-17T23:04:59.860Z,1.13
2022-09-17T23:07:26.324Z,2.03
2022-09-17T23:09:52.862Z,0.60
2022-09-17T23:12:19.385Z,0.50
2022-09-17T23:14:45.904Z,0.80
2022-09-17T23:17:12.482Z,0.73
2022-09-17T23:19:38.950Z,0.60
2022-09-17T23:22:05.456Z,0.90
2022-09-17T23:24:32.014Z,0.87
2022-09-17T23:26:58.554Z,1.90
2022-09-17T23:29:25.068Z,2.80
2022-09-17T23:31:51.671Z,1.57
2022-09-17T23:34:18.222Z,1.50
2022-09-17T23:36:44.711Z,3.93
2022-09-17T23:39:11.402Z,1.53
2022-09-17T23:41:37.873Z,2.20
2022-09-17T23:44:04.426Z,1.93
2022-09-17T23:46:31.121Z,3.50
2022-09-17T23:48:57.766Z,2.60
2022-09-17T23:51:24.287Z,2.70
2022-09-17T23:53:50.827Z,3.10
2022-09-17T23:56:17.338Z,2.73
2022-09-17T23:58:43.833Z,2.60
